Time,TemperatureF,DewpointF,PressureIn,WindDirection,WindDirectionDegrees,WindSpeedMPH,WindSpeedGustMPH,Humidity,HourlyPrecipIn,Conditions,Clouds,dailyrainin,SoftwareType,DateUTC
2013-04-03 00:00:00,32.3,20.0,30.37,NNW,338,0.0,0.0,60,0.00,,RA,0.00,VWS V14.01,2013-04-03 05:00:00,
2013-04-03 00:10:00,32.2,20.3,30.38,NNW,338,0.0,0.0,61,0.00,,RA,0.00,VWS V14.01,2013-04-03 05:10:00,
2013-04-03 00:20:00,31.9,20.0,30.38,NNW,338,0.0,0.0,61,0.00,,RA,0.00,VWS V14.01,2013-04-03 05:20:00,
2013-04-03 00:30:00,31.7,20.2,30.38,NNW,338,0.0,0.0,62,0.00,,RA,0.00,VWS V14.01,2013-04-03 05:30:00,
2013-04-03 00:40:00,31.4,19.9,30.38,NNW,338,0.0,0.0,62,0.00,,RA,0.00,VWS V14.01,2013-04-03 05:40:00,
2013-04-03 00:50:00,31.2,20.1,30.38,NNW,338,0.0,0.0,63,0.00,,RA,0.00,VWS V14.01,2013-04-03 05:50:00,
2013-04-03 01:00:00,31.1,20.0,30.38,NNW,338,0.0,0.0,63,0.00,,BKN110,0.00,VWS V14.01,2013-04-03 06:00:00,
2013-04-03 01:10:00,31.0,20.3,30.38,NNW,338,0.0,0.0,64,0.00,,RA,0.00,VWS V14.01,2013-04-03 06:10:00,
2013-04-03 01:20:00,30.9,20.2,30.38,NNW,338,0.0,0.0,64,0.00,,RA,0.00,VWS V14.01,2013-04-03 06:20:00,
2013-04-03 01:30:00,30.7,20.3,30.38,NNW,338,0.0,0.0,65,0.00,,RA,0.00,VWS V14.01,2013-04-03 06:30:00,
2013-04-03 01:40:00,30.6,20.2,30.38,NNW,338,0.0,0.0,65,0.00,,RA,0.00,VWS V14.01,2013-04-03 06:40:00,
2013-04-03 01:50:00,30.1,20.1,30.38,NNW,338,0.0,0.0,66,0.00,,RA,0.00,VWS V14.01,2013-04-03 06:50:00,
2013-04-03 02:00:00,29.7,20.1,30.39,NNW,338,0.0,0.0,67,0.00,,RA,0.00,VWS V14.01,2013-04-03 07:00:00,
2013-04-03 02:10:00,29.4,20.2,30.39,NNW,338,0.0,0.0,68,0.00,,RA,0.00,VWS V14.01,2013-04-03 07:10:00,
2013-04-03 02:20:00,29.2,20.0,30.38,NNW,338,0.0,0.0,68,0.00,,RA,0.00,VWS V14.01,2013-04-03 07:20:00,
2013-04-03 02:30:00,29.6,20.4,30.39,NNE,22,0.0,2.0,68,0.00,,RA,0.00,VWS V14.01,2013-04-03 07:30:00,
2013-04-03 02:40:00,29.3,20.1,30.39,NNE,22,0.0,1.0,68,0.00,,RA,0.00,VWS V14.01,2013-04-03 07:40:00,
2013-04-03 02:50:00,29.2,20.3,30.39,NNE,22,0.0,0.0,69,0.00,,RA,0.00,VWS V14.01,2013-04-03 07:50:00,
2013-04-03 03:00:00,29.1,20.2,30.39,NNE,22,0.0,0.0,69,0.00,,BKN110,0.00,VWS V14.01,2013-04-03 08:00:00,
2013-04-03 03:10:00,28.8,20.3,30.39,NNE,22,0.0,0.0,70,0.00,,RA,0.00,VWS V14.01,2013-04-03 08:10:00,
2013-04-03 03:20:00,28.9,20.4,30.39,NNE,22,0.0,0.0,70,0.00,,RA,0.00,VWS V14.01,2013-04-03 08:20:00,
2013-04-03 03:30:00,28.9,20.7,30.39,NNE,22,0.0,0.0,71,0.00,,RA,0.00,VWS V14.01,2013-04-03 08:30:00,
2013-04-03 03:40:00,28.8,20.6,30.39,NNE,22,1.0,3.0,71,0.00,,OVC031,0.00,VWS V14.01,2013-04-03 08:40:00,
2013-04-03 03:50:00,28.9,20.7,30.39,NE,45,2.0,3.0,71,0.00,,OVC031,0.00,VWS V14.01,2013-04-03 08:50:00,
2013-04-03 04:00:00,28.8,20.6,30.39,NE,45,2.0,3.0,71,0.00,,OVC031,0.00,VWS V14.01,2013-04-03 09:00:00,
2013-04-03 04:10:00,28.6,20.7,30.40,NE,45,2.0,3.0,72,0.00,,OVC031,0.00,VWS V14.01,2013-04-03 09:10:00,
2013-04-03 04:20:00,28.4,20.5,30.40,NNE,22,1.0,3.0,72,0.00,,OVC031,0.00,VWS V14.01,2013-04-03 09:20:00,
2013-04-03 04:30:00,28.5,20.3,30.40,NE,45,2.0,4.0,71,0.00,,OVC031,0.00,VWS V14.01,2013-04-03 09:30:00,
2013-04-03 04:40:00,28.2,20.4,30.40,NE,45,1.0,2.0,72,0.00,,OVC031,0.00,VWS V14.01,2013-04-03 09:40:00,
2013-04-03 04:50:00,28.2,20.0,30.40,NE,45,2.0,4.0,71,0.00,,OVC031,0.00,VWS V14.01,2013-04-03 09:50:00,
2013-04-03 05:00:00,28.1,19.9,30.41,NE,45,2.0,4.0,71,0.00,,OVC031,0.00,VWS V14.01,2013-04-03 10:00:00,
2013-04-03 05:10:00,28.1,20.2,30.41,NE,45,2.0,4.0,72,0.00,,OVC031,0.00,VWS V14.01,2013-04-03 10:10:00,
2013-04-03 05:20:00,28.0,20.2,30.40,NE,45,3.0,4.0,72,0.00,,OVC031,0.00,VWS V14.01,2013-04-03 10:20:00,
2013-04-03 05:30:00,27.8,20.0,30.41,NE,45,3.0,6.0,72,0.00,,OVC031,0.00,VWS V14.01,2013-04-03 10:30:00,
2013-04-03 05:40:00,27.7,19.9,30.41,NE,45,2.0,4.0,72,0.00,,OVC031,0.00,VWS V14.01,2013-04-03 10:40:00,
2013-04-03 05:50:00,27.7,19.5,30.41,NE,45,2.0,4.0,71,0.00,,OVC031,0.00,VWS V14.01,2013-04-03 10:50:00,
2013-04-03 06:00:00,27.6,19.4,30.42,NE,45,3.0,4.0,71,0.00,,OVC031,0.00,VWS V14.01,2013-04-03 11:00:00,
2013-04-03 06:10:00,27.5,19.4,30.42,NE,45,2.0,4.0,71,0.00,,OVC031,0.00,VWS V14.01,2013-04-03 11:10:00,
2013-04-03 06:20:00,27.3,19.1,30.42,NE,45,3.0,4.0,71,0.00,,OVC031,0.00,VWS V14.01,2013-04-03 11:20:00,
2013-04-03 06:30:00,27.3,19.5,30.42,NE,45,3.0,5.0,72,0.00,,OVC031,0.00,VWS V14.01,2013-04-03 11:30:00,
2013-04-03 06:40:00,27.0,19.2,30.42,NNE,22,2.0,4.0,72,0.00,,OVC031,0.00,VWS V14.01,2013-04-03 11:40:00,
2013-04-03 06:50:00,26.9,19.1,30.43,NE,45,2.0,4.0,72,0.00,,OVC031,0.00,VWS V14.01,2013-04-03 11:50:00,
2013-04-03 07:00:00,26.9,19.1,30.44,NNE,22,2.0,4.0,72,0.00,,OVC031,0.00,VWS V14.01,2013-04-03 12:00:00,
2013-04-03 07:10:00,27.1,19.0,30.44,NE,45,2.0,4.0,71,0.00,,OVC031,0.00,VWS V14.01,2013-04-03 12:10:00,
2013-04-03 07:20:00,27.5,19.4,30.45,NE,45,2.0,5.0,71,0.00,,OVC031,0.00,VWS V14.01,2013-04-03 12:20:00,
2013-04-03 07:30:00,28.1,19.3,30.46,NE,45,3.0,5.0,69,0.00,,OVC031,0.00,VWS V14.01,2013-04-03 12:30:00,
2013-04-03 07:40:00,28.8,19.6,30.46,NE,45,3.0,6.0,68,0.00,,OVC031,0.00,VWS V14.01,2013-04-03 12:40:00,
2013-04-03 07:50:00,29.5,19.2,30.47,ENE,68,3.0,5.0,65,0.00,,OVC031,0.00,VWS V14.01,2013-04-03 12:50:00,
2013-04-03 08:00:00,30.4,19.3,30.48,ENE,68,3.0,5.0,63,0.00,,OVC031,0.00,VWS V14.01,2013-04-03 13:00:00,
2013-04-03 08:10:00,31.2,19.0,30.48,ENE,68,4.0,7.0,60,0.00,,OVC031,0.00,VWS V14.01,2013-04-03 13:10:00,
2013-04-03 08:20:00,32.1,18.6,30.49,ENE,68,4.0,8.0,57,0.00,,OVC031,0.00,VWS V14.01,2013-04-03 13:20:00,
2013-04-03 08:30:00,32.8,18.4,30.49,ENE,68,6.0,9.0,55,0.00,,OVC031,0.00,VWS V14.01,2013-04-03 13:30:00,
2013-04-03 08:40:00,33.7,18.8,30.49,ENE,68,5.0,11.0,54,0.00,,OVC031,0.00,VWS V14.01,2013-04-03 13:40:00,
2013-04-03 08:50:00,34.4,18.6,30.49,ENE,68,4.0,9.0,52,0.00,,OVC031,0.00,VWS V14.01,2013-04-03 13:50:00,
2013-04-03 09:00:00,34.7,18.4,30.49,ENE,68,6.0,11.0,51,0.00,,OVC031,0.00,VWS V14.01,2013-04-03 14:00:00,
2013-04-03 09:10:00,35.2,18.0,30.49,ENE,68,6.0,14.0,49,0.00,,OVC031,0.00,VWS V14.01,2013-04-03 14:10:00,
2013-04-03 09:20:00,35.9,18.6,30.49,ENE,68,5.0,12.0,49,0.00,,OVC031,0.00,VWS V14.01,2013-04-03 14:20:00,
2013-04-03 09:30:00,36.7,18.9,30.49,ENE,68,5.0,13.0,48,0.00,,OVC031,0.00,VWS V14.01,2013-04-03 14:30:00,
2013-04-03 09:40:00,36.7,18.4,30.49,ENE,68,7.0,14.0,47,0.00,,OVC031,0.00,VWS V14.01,2013-04-03 14:40:00,
2013-04-03 09:50:00,37.0,17.1,30.50,ENE,68,6.0,12.0,44,0.00,,OVC031,0.00,VWS V14.01,2013-04-03 14:50:00,
2013-04-03 10:00:00,37.9,17.4,30.50,SE,135,5.0,10.0,43,0.00,,OVC031,0.00,VWS V14.01,2013-04-03 15:00:00,
2013-04-03 10:10:00,38.6,17.0,30.50,SE,135,5.0,11.0,41,0.00,,OVC031,0.00,VWS V14.01,2013-04-03 15:10:00,
2013-04-03 10:20:00,38.9,17.2,30.50,ENE,68,5.0,12.0,41,0.00,,OVC031,0.00,VWS V14.01,2013-04-03 15:20:00,
2013-04-03 10:30:00,39.5,17.8,30.50,ESE,112,4.0,9.0,41,0.00,,OVC031,0.00,VWS V14.01,2013-04-03 15:30:00,
2013-04-03 10:40:00,39.9,17.0,30.49,SE,135,4.0,12.0,39,0.00,,OVC031,0.00,VWS V14.01,2013-04-03 15:40:00,
2013-04-03 10:50:00,40.1,17.7,30.49,ENE,68,5.0,12.0,40,0.00,,OVC031,0.00,VWS V14.01,2013-04-03 15:50:00,
2013-04-03 11:00:00,40.2,16.0,30.50,ENE,68,5.0,9.0,37,0.00,,OVC031,0.00,VWS V14.01,2013-04-03 16:00:00,
2013-04-03 11:10:00,40.6,17.0,30.49,ENE,68,4.0,10.0,38,0.00,,OVC031,0.00,VWS V14.01,2013-04-03 16:10:00,
2013-04-03 11:20:00,40.8,16.6,30.49,ENE,68,5.0,10.0,37,0.00,,OVC031,0.00,VWS V14.01,2013-04-03 16:20:00,
2013-04-03 11:30:00,41.3,17.6,30.49,ENE,68,4.0,9.0,38,0.00,,OVC031,0.00,VWS V14.01,2013-04-03 16:30:00,
2013-04-03 11:40:00,42.0,17.0,30.49,ENE,68,3.0,9.0,36,0.00,,OVC031,0.00,VWS V14.01,2013-04-03 16:40:00,
2013-04-03 11:50:00,42.4,17.4,30.48,SE,135,4.0,10.0,36,0.00,,OVC031,0.00,VWS V14.01,2013-04-03 16:50:00,
2013-04-03 12:00:00,42.5,16.8,30.47,ENE,68,4.0,9.0,35,0.00,,OVC031,0.00,VWS V14.01,2013-04-03 17:00:00,
2013-04-03 12:10:00,43.2,19.3,30.47,ENE,68,5.0,15.0,38,0.00,,OVC031,0.00,VWS V14.01,2013-04-03 17:10:00,
2013-04-03 12:20:00,43.1,16.0,30.47,ENE,68,5.0,13.0,33,0.00,,OVC031,0.00,VWS V14.01,2013-04-03 17:20:00,
2013-04-03 12:30:00,43.1,17.3,30.46,ENE,68,5.0,12.0,35,0.00,,OVC031,0.00,VWS V14.01,2013-04-03 17:30:00,
2013-04-03 12:40:00,43.8,17.3,30.46,ENE,68,4.0,13.0,34,0.00,,OVC031,0.00,VWS V14.01,2013-04-03 17:40:00,
2013-04-03 12:50:00,44.3,17.0,30.45,East,90,4.0,10.0,33,0.00,,OVC031,0.00,VWS V14.01,2013-04-03 17:50:00,
2013-04-03 13:00:00,44.5,17.2,30.44,SE,135,4.0,10.0,33,0.00,,OVC031,0.00,VWS V14.01,2013-04-03 18:00:00,
2013-04-03 13:10:00,44.3,16.3,30.44,ENE,68,5.0,11.0,32,0.00,,OVC031,0.00,VWS V14.01,2013-04-03 18:10:00,
2013-04-03 13:20:00,44.9,16.1,30.44,ENE,68,4.0,10.0,31,0.00,,OVC031,0.00,VWS V14.01,2013-04-03 18:20:00,
2013-04-03 13:30:00,45.3,17.9,30.43,ENE,68,5.0,12.0,33,0.00,,OVC031,0.00,VWS V14.01,2013-04-03 18:30:00,
2013-04-03 13:40:00,45.9,18.4,30.42,ENE,68,5.0,11.0,33,0.00,,OVC031,0.00,VWS V14.01,2013-04-03 18:40:00,
2013-04-03 13:50:00,45.7,16.8,30.42,ENE,68,6.0,12.0,31,0.00,,OVC031,0.00,VWS V14.01,2013-04-03 18:50:00,
2013-04-03 14:00:00,46.4,16.7,30.41,NE,45,5.0,11.0,30,0.00,,OVC031,0.00,VWS V14.01,2013-04-03 19:00:00,
2013-04-03 14:10:00,46.5,16.0,30.41,ENE,68,6.0,13.0,29,0.00,,OVC031,0.00,VWS V14.01,2013-04-03 19:10:00,
2013-04-03 14:20:00,47.2,17.4,30.41,ENE,68,5.0,11.0,30,0.00,,OVC031,0.00,VWS V14.01,2013-04-03 19:20:00,
2013-04-03 14:30:00,47.3,18.2,30.41,ENE,68,5.0,13.0,31,0.00,,OVC031,0.00,VWS V14.01,2013-04-03 19:30:00,
2013-04-03 14:40:00,48.1,17.4,30.40,ENE,68,4.0,11.0,29,0.00,,OVC031,0.00,VWS V14.01,2013-04-03 19:40:00,
2013-04-03 14:50:00,47.9,16.4,30.40,SE,135,5.0,12.0,28,0.00,,OVC031,0.00,VWS V14.01,2013-04-03 19:50:00,
2013-04-03 15:00:00,48.7,18.7,30.40,ENE,68,4.0,10.0,30,0.00,,OVC031,0.00,VWS V14.01,2013-04-03 20:00:00,
2013-04-03 15:10:00,48.3,15.0,30.40,ENE,68,5.0,12.0,26,0.00,,OVC031,0.00,VWS V14.01,2013-04-03 20:10:00,
2013-04-03 15:20:00,48.2,14.9,30.40,East,90,4.0,9.0,26,0.00,,OVC031,0.00,VWS V14.01,2013-04-03 20:20:00,
2013-04-03 15:30:00,48.5,15.2,30.40,ESE,112,4.0,12.0,26,0.00,,OVC031,0.00,VWS V14.01,2013-04-03 20:30:00,
2013-04-03 15:40:00,49.3,15.0,30.40,SSW,202,5.0,13.0,25,0.00,,OVC031,0.00,VWS V14.01,2013-04-03 20:40:00,
2013-04-03 15:50:00,49.7,16.2,30.39,SSE,158,3.0,10.0,26,0.00,,OVC031,0.00,VWS V14.01,2013-04-03 20:50:00,
2013-04-03 16:00:00,49.3,15.0,30.39,SE,135,5.0,13.0,25,0.00,,OVC031,0.00,VWS V14.01,2013-04-03 21:00:00,
2013-04-03 16:10:00,49.2,16.7,30.39,ENE,68,4.0,10.0,27,0.00,,OVC031,0.00,VWS V14.01,2013-04-03 21:10:00,
2013-04-03 16:20:00,49.5,15.1,30.39,SSE,158,3.0,8.0,25,0.00,,OVC031,0.00,VWS V14.01,2013-04-03 21:20:00,
2013-04-03 16:30:00,49.6,14.3,30.38,South,180,3.0,8.0,24,0.00,,OVC031,0.00,VWS V14.01,2013-04-03 21:30:00,
2013-04-03 16:40:00,49.6,13.3,30.38,SE,135,4.0,10.0,23,0.00,,OVC031,0.00,VWS V14.01,2013-04-03 21:40:00,
2013-04-03 16:50:00,49.0,13.8,30.38,SSE,158,5.0,12.0,24,0.00,,OVC031,0.00,VWS V14.01,2013-04-03 21:50:00,
2013-04-03 17:00:00,49.0,14.7,30.38,SE,135,5.0,10.0,25,0.00,,OVC031,0.00,VWS V14.01,2013-04-03 22:00:00,
2013-04-03 17:10:00,49.2,15.8,30.38,SSE,158,6.0,12.0,26,0.00,,OVC031,0.00,VWS V14.01,2013-04-03 22:10:00,
2013-04-03 17:20:00,49.1,15.7,30.37,SE,135,5.0,10.0,26,0.00,,OVC031,0.00,VWS V14.01,2013-04-03 22:20:00,
2013-04-03 17:30:00,49.3,15.9,30.37,SSE,158,4.0,11.0,26,0.00,,OVC031,0.00,VWS V14.01,2013-04-03 22:30:00,
2013-04-03 17:40:00,49.3,15.9,30.37,SSE,158,2.0,7.0,26,0.00,,OVC031,0.00,VWS V14.01,2013-04-03 22:40:00,
2013-04-03 17:50:00,48.8,16.3,30.36,ESE,112,4.0,9.0,27,0.00,,OVC031,0.00,VWS V14.01,2013-04-03 22:50:00,
2013-04-03 18:00:00,48.9,17.2,30.36,SE,135,2.0,7.0,28,0.00,,OVC031,0.00,VWS V14.01,2013-04-03 23:00:00,
2013-04-03 18:10:00,48.6,17.0,30.37,SSE,158,4.0,9.0,28,0.00,,OVC031,0.00,VWS V14.01,2013-04-03 23:10:00,
2013-04-03 18:20:00,48.5,17.7,30.36,SSE,158,4.0,8.0,29,0.00,,OVC031,0.00,VWS V14.01,2013-04-03 23:20:00,
2013-04-03 18:30:00,48.2,18.2,30.36,South,180,4.0,9.0,30,0.00,,OVC031,0.00,VWS V14.01,2013-04-03 23:30:00,
2013-04-03 18:40:00,48.0,18.1,30.36,SSE,158,3.0,9.0,30,0.00,,OVC031,0.00,VWS V14.01,2013-04-03 23:40:00,
2013-04-03 18:50:00,47.6,17.7,30.37,South,180,3.0,7.0,30,0.00,,OVC031,0.00,VWS V14.01,2013-04-03 23:50:00,
2013-04-03 19:00:00,47.3,18.2,30.36,SSE,158,3.0,6.0,31,0.00,,OVC031,0.00,VWS V14.01,2013-04-04 00:00:00,
2013-04-03 19:10:00,46.8,18.5,30.36,SSE,158,3.0,7.0,32,0.00,,OVC031,0.00,VWS V14.01,2013-04-04 00:10:00,
2013-04-03 19:20:00,46.3,18.8,30.36,SSE,158,1.0,4.0,33,0.00,,OVC031,0.00,VWS V14.01,2013-04-04 00:20:00,
2013-04-03 19:30:00,45.8,19.0,30.35,SSE,158,1.0,3.0,34,0.00,,OVC031,0.00,VWS V14.01,2013-04-04 00:30:00,
2013-04-03 19:40:00,45.3,18.6,30.35,SE,135,1.0,2.0,34,0.00,,OVC031,0.00,VWS V14.01,2013-04-04 00:40:00,
2013-04-03 19:50:00,44.8,19.5,30.36,SE,135,1.0,3.0,36,0.00,,OVC031,0.00,VWS V14.01,2013-04-04 00:50:00,
2013-04-03 20:00:00,44.3,19.7,30.35,SSE,158,1.0,3.0,37,0.00,,OVC031,0.00,VWS V14.01,2013-04-04 01:00:00,
2013-04-03 20:10:00,43.9,20.0,30.35,ESE,112,1.0,2.0,38,0.00,,OVC031,0.00,VWS V14.01,2013-04-04 01:10:00,
2013-04-03 20:20:00,43.4,20.1,30.35,East,90,1.0,3.0,39,0.00,,OVC031,0.00,VWS V14.01,2013-04-04 01:20:00,
2013-04-03 20:30:00,42.9,20.3,30.35,East,90,1.0,4.0,40,0.00,,OVC031,0.00,VWS V14.01,2013-04-04 01:30:00,
2013-04-03 20:40:00,42.5,19.9,30.35,SE,135,1.0,3.0,40,0.00,,OVC031,0.00,VWS V14.01,2013-04-04 01:40:00,
2013-04-03 20:50:00,42.2,20.2,30.35,ESE,112,1.0,4.0,41,0.00,,OVC031,0.00,VWS V14.01,2013-04-04 01:50:00,
2013-04-03 21:00:00,41.9,20.5,30.36,SE,135,1.0,3.0,42,0.00,,OVC031,0.00,VWS V14.01,2013-04-04 02:00:00,
2013-04-03 21:10:00,41.5,20.1,30.36,ESE,112,1.0,3.0,42,0.00,,OVC031,0.00,VWS V14.01,2013-04-04 02:10:00,
2013-04-03 21:20:00,41.2,20.4,30.36,ESE,112,1.0,3.0,43,0.00,,OVC031,0.00,VWS V14.01,2013-04-04 02:20:00,
2013-04-03 21:30:00,40.9,20.7,30.36,SE,135,1.0,3.0,44,0.00,,OVC031,0.00,VWS V14.01,2013-04-04 02:30:00,
2013-04-03 21:40:00,40.8,20.6,30.36,SE,135,1.0,5.0,44,0.00,,OVC031,0.00,VWS V14.01,2013-04-04 02:40:00,
2013-04-03 21:50:00,40.9,20.7,30.36,SE,135,2.0,4.0,44,0.00,,OVC031,0.00,VWS V14.01,2013-04-04 02:50:00,
2013-04-03 22:00:00,40.5,20.9,30.36,ESE,112,1.0,2.0,45,0.00,,OVC031,0.00,VWS V14.01,2013-04-04 03:00:00,
2013-04-03 22:10:00,40.3,21.2,30.36,SE,135,1.0,4.0,46,0.00,,OVC031,0.00,VWS V14.01,2013-04-04 03:10:00,
2013-04-03 22:20:00,40.0,20.9,30.36,ESE,112,1.0,4.0,46,0.00,,OVC031,0.00,VWS V14.01,2013-04-04 03:20:00,
2013-04-03 22:30:00,39.9,21.3,30.36,SE,135,1.0,4.0,47,0.00,,OVC031,0.00,VWS V14.01,2013-04-04 03:30:00,
2013-04-03 22:40:00,39.6,21.0,30.36,SE,135,2.0,5.0,47,0.00,,OVC031,0.00,VWS V14.01,2013-04-04 03:40:00,
2013-04-03 22:50:00,39.5,21.0,30.36,SE,135,2.0,4.0,47,0.00,,OVC031,0.00,VWS V14.01,2013-04-04 03:50:00,
2013-04-03 23:00:00,39.3,20.8,30.36,SE,135,2.0,5.0,47,0.00,,OVC031,0.00,VWS V14.01,2013-04-04 04:00:00,
2013-04-03 23:10:00,39.6,21.0,30.35,SE,135,2.0,6.0,47,0.00,,OVC031,0.00,VWS V14.01,2013-04-04 04:10:00,
2013-04-03 23:20:00,39.4,20.9,30.35,SE,135,2.0,5.0,47,0.00,,OVC031,0.00,VWS V14.01,2013-04-04 04:20:00,
2013-04-03 23:30:00,39.4,20.9,30.35,ESE,112,2.0,6.0,47,0.00,,OVC031,0.00,VWS V14.01,2013-04-04 04:30:00,
2013-04-03 23:40:00,39.4,20.9,30.34,SE,135,3.0,6.0,47,0.00,,OVC031,0.00,VWS V14.01,2013-04-04 04:40:00,
2013-04-03 23:50:00,39.4,20.9,30.34,SE,135,2.0,5.0,47,0.00,,OVC031,0.00,VWS V14.01,2013-04-04 04:50:00,